Time;durP1;ratioP1;P1;durP2;ratioP2;P2;SDS_P1;SDS_P2;PMS_P1;PMS_P2;Temp;Humidity;BMP_temperature;BMP_pressure;BME280_temperature;BME280_humidity;BME280_pressure;Samples;Min_cycle;Max_cycle;Signal;HPM_P1;HPM_P2
2024/03/29 00:01:50;;;;;;;10.30;9.80;;;6.70;1.00;;;;;;5023571;28;20677;-50
2024/03/29 00:04:16;;;;;;;10.60;10.10;;;6.70;1.00;;;;;;5023844;28;20189;-45
2024/03/29 00:06:41;;;;;;;10.70;10.20;;;6.70;1.00;;;;;;5024182;28;20186;-41
2024/03/29 00:09:07;;;;;;;10.97;10.37;;;6.70;1.00;;;;;;5023897;28;20209;-51
2024/03/29 00:11:32;;;;;;;11.10;10.50;;;6.70;1.00;;;;;;5024405;28;20178;-48
2024/03/29 00:13:58;;;;;;;10.80;10.30;;;6.70;1.00;;;;;;5024113;28;20218;-56
2024/03/29 00:16:25;;;;;;;10.50;10.00;;;6.80;1.00;;;;;;5024348;28;20741;-55
2024/03/29 00:18:52;;;;;;;11.30;10.70;;;6.80;99.90;;;;;;5024058;28;20226;-48
2024/03/29 00:21:17;;;;;;;10.90;10.40;;;6.80;99.90;;;;;;5023528;28;21422;-52
2024/03/29 00:23:45;;;;;;;9.70;9.30;;;6.80;99.90;;;;;;5023721;28;20421;-50
2024/03/29 00:26:11;;;;;;;10.20;9.80;;;6.90;99.90;;;;;;5024620;28;20178;-47
2024/03/29 00:28:37;;;;;;;10.17;9.73;;;6.90;99.90;;;;;;5023621;28;20413;-44
2024/03/29 00:31:03;;;;;;;10.57;10.07;;;6.90;99.90;;;;;;5023430;28;20425;-51
2024/03/29 00:33:28;;;;;;;10.20;9.70;;;7.00;99.90;;;;;;5023946;28;20416;-52
2024/03/29 00:35:54;;;;;;;10.87;10.23;;;7.00;99.90;;;;;;5023238;28;20475;-49
2024/03/29 00:38:19;;;;;;;10.60;10.20;;;6.90;99.90;;;;;;5023589;28;20198;-54
2024/03/29 00:40:45;;;;;;;10.97;10.47;;;7.00;99.90;;;;;;5022323;28;20190;-49
2024/03/29 00:43:10;;;;;;;11.70;11.10;;;7.00;99.90;;;;;;5022832;28;20270;-46
2024/03/29 00:45:36;;;;;;;11.17;10.67;;;6.90;99.90;;;;;;5023149;28;20233;-52
2024/03/29 00:48:02;;;;;;;11.00;10.50;;;6.90;99.90;;;;;;5023094;28;20534;-53
2024/03/29 00:50:27;;;;;;;11.03;10.47;;;6.90;99.90;;;;;;5023512;28;20269;-51
2024/03/29 00:52:53;;;;;;;10.50;10.00;;;6.80;99.90;;;;;;5023258;28;20198;-51
2024/03/29 00:55:19;;;;;;;10.77;10.27;;;6.90;99.90;;;;;;5023570;28;20265;-49
2024/03/29 00:57:44;;;;;;;11.40;10.80;;;6.80;99.90;;;;;;5023665;28;20190;-40
2024/03/29 01:00:10;;;;;;;11.87;11.27;;;6.80;99.90;;;;;;5022602;28;20190;-41
2024/03/29 01:02:36;;;;;;;11.10;10.60;;;6.80;1.00;;;;;;5022068;28;20207;-39
2024/03/29 01:05:02;;;;;;;11.73;11.03;;;6.80;1.00;;;;;;5020386;28;20429;-38
2024/03/29 01:07:28;;;;;;;11.47;10.77;;;6.80;1.00;;;;;;5022812;28;20591;-43
2024/03/29 01:09:54;;;;;;;11.20;10.70;;;6.70;1.00;;;;;;5021283;28;20476;-38
2024/03/29 01:12:19;;;;;;;11.10;10.50;;;6.80;1.00;;;;;;5023001;28;20211;-41
2024/03/29 01:14:45;;;;;;;11.37;10.73;;;6.80;1.00;;;;;;5022689;28;20191;-42
2024/03/29 01:17:11;;;;;;;11.10;10.60;;;6.90;1.00;;;;;;5022127;28;21189;-42
2024/03/29 01:19:37;;;;;;;10.53;10.03;;;6.90;99.90;;;;;;5022940;28;20421;-39
2024/03/29 01:22:04;;;;;;;11.10;10.33;;;6.90;99.90;;;;;;5021773;28;20233;-39
2024/03/29 01:24:29;;;;;;;11.40;10.70;;;7.00;1.00;;;;;;5021122;28;20462;-39
2024/03/29 01:26:55;;;;;;;11.77;11.07;;;7.00;99.90;;;;;;5023112;28;20437;-39
2024/03/29 01:29:21;;;;;;;11.37;10.87;;;7.00;99.90;;;;;;5022476;28;20193;-40
2024/03/29 01:31:46;;;;;;;11.20;10.60;;;7.00;99.90;;;;;;5020860;28;20186;-39
2024/03/29 01:34:12;;;;;;;10.87;10.37;;;7.00;99.90;;;;;;5021207;28;20221;-41
2024/03/29 01:36:37;;;;;;;10.20;9.70;;;7.10;99.90;;;;;;5022003;28;20617;-40
2024/03/29 01:39:03;;;;;;;11.57;10.90;;;7.00;99.90;;;;;;5021369;28;20293;-41
2024/03/29 01:41:29;;;;;;;11.37;10.77;;;7.10;99.90;;;;;;5020987;28;20738;-42
2024/03/29 01:43:55;;;;;;;10.80;10.30;;;7.10;99.90;;;;;;5022564;28;20184;-39
2024/03/29 01:46:23;;;;;;;11.73;10.93;;;7.10;99.90;;;;;;5021134;28;20197;-42
2024/03/29 01:48:52;;;;;;;11.73;11.03;;;7.00;99.90;;;;;;5021827;28;20429;-41
2024/03/29 01:51:19;;;;;;;10.53;10.03;;;7.10;99.90;;;;;;5021879;28;20442;-39
2024/03/29 01:53:47;;;;;;;10.90;10.30;;;7.00;99.90;;;;;;5022698;28;20417;-42
2024/03/29 01:56:15;;;;;;;10.87;10.37;;;7.00;99.90;;;;;;5022762;28;20941;-40
2024/03/29 01:58:41;;;;;;;10.93;10.43;;;6.90;99.90;;;;;;5022169;28;20417;-40
2024/03/29 02:01:08;;;;;;;10.87;10.27;;;6.90;99.90;;;;;;5020741;28;20481;-45
2024/03/29 02:03:33;;;;;;;11.50;10.90;;;6.90;99.90;;;;;;5022475;28;20417;-41
2024/03/29 02:06:01;;;;;;;11.03;10.43;;;6.90;99.90;;;;;;5020252;28;20425;-45
2024/03/29 02:08:28;;;;;;;11.37;10.80;;;6.90;1.00;;;;;;5022055;28;20198;-45
2024/03/29 02:10:54;;;;;;;12.07;11.27;;;6.70;99.90;;;;;;5021625;28;20476;-40
2024/03/29 02:13:20;;;;;;;11.60;10.80;;;6.70;99.90;;;;;;5021080;28;20417;-44
2024/03/29 02:15:45;;;;;;;11.33;10.83;;;6.60;1.00;;;;;;5021201;28;20452;-38
2024/03/29 02:18:11;;;;;;;11.40;10.70;;;6.50;1.00;;;;;;5021888;28;20728;-38
2024/03/29 02:20:37;;;;;;;11.30;10.60;;;6.50;1.00;;;;;;5020978;28;20215;-43
2024/03/29 02:23:26;;;;;;;12.07;11.30;;;6.40;7.50;;;;;;5021202;28;20174;-41
2024/03/29 02:25:51;;;;;;;11.80;11.00;;;6.40;99.90;;;;;;5020274;28;20475;-41
2024/03/29 02:28:17;;;;;;;11.00;10.20;;;6.40;25.40;;;;;;5021725;28;20421;-40
2024/03/29 02:30:43;;;;;;;11.13;10.43;;;6.40;1.00;;;;;;5020704;28;20178;-40
2024/03/29 02:33:08;;;;;;;10.97;10.47;;;6.40;1.00;;;;;;5020604;28;20433;-41
2024/03/29 02:35:34;;;;;;;10.93;10.33;;;6.40;1.00;;;;;;5021074;28;20182;-40
2024/03/29 02:37:59;;;;;;;11.00;10.40;;;6.40;1.00;;;;;;5020444;28;20655;-41
2024/03/29 02:40:25;;;;;;;10.87;10.37;;;6.40;1.00;;;;;;5021360;28;20185;-40
2024/03/29 02:42:51;;;;;;;11.10;10.30;;;6.40;1.00;;;;;;5021427;28;20217;-38
2024/03/29 02:45:17;;;;;;;11.23;10.40;;;6.40;1.00;;;;;;5021063;28;20183;-40
2024/03/29 02:47:43;;;;;;;10.83;10.27;;;6.40;1.00;;;;;;5020168;28;20242;-38
2024/03/29 02:50:10;;;;;;;10.33;9.83;;;6.50;1.00;;;;;;5021441;28;20429;-39
2024/03/29 02:52:36;;;;;;;10.27;9.77;;;6.50;1.00;;;;;;5019510;28;20582;-43
2024/03/29 02:55:02;;;;;;;11.00;10.40;;;6.50;1.00;;;;;;5020793;28;20429;-39
2024/03/29 02:57:27;;;;;;;11.20;10.40;;;6.50;1.00;;;;;;5020677;28;20500;-43
2024/03/29 02:59:53;;;;;;;10.90;10.40;;;6.50;1.00;;;;;;5020749;28;20191;-40
2024/03/29 03:02:19;;;;;;;11.53;10.70;;;6.60;1.00;;;;;;5020948;28;20676;-43
2024/03/29 03:04:44;;;;;;;11.63;10.90;;;6.60;1.00;;;;;;5020885;28;20178;-42
2024/03/29 03:12:38;;;;;;;11.60;11.00;;;6.70;1.00;;;;;;5021094;28;21248;-43
2024/03/29 03:15:04;;;;;;;12.17;11.27;;;6.70;1.00;;;;;;5020083;28;20441;-40
2024/03/29 03:17:31;;;;;;;11.40;10.80;;;6.70;1.00;;;;;;5019818;28;20249;-47
2024/03/29 03:19:57;;;;;;;11.73;10.93;;;6.70;1.00;;;;;;5020898;28;20700;-41
2024/03/29 03:22:22;;;;;;;11.90;11.10;;;6.80;1.00;;;;;;5020846;28;20559;-40
2024/03/29 03:24:48;;;;;;;10.97;10.37;;;6.80;1.00;;;;;;5021022;28;20418;-41
2024/03/29 03:27:14;;;;;;;11.60;10.90;;;6.80;1.00;;;;;;5019487;28;20192;-41
2024/03/29 03:29:39;;;;;;;11.43;10.83;;;6.90;1.00;;;;;;5020214;28;20186;-38
2024/03/29 03:32:05;;;;;;;12.00;11.27;;;6.90;1.00;;;;;;5020530;28;20212;-41
2024/03/29 03:34:32;;;;;;;11.10;10.50;;;6.90;1.00;;;;;;5018733;28;20190;-42
2024/03/29 03:36:57;;;;;;;11.87;11.20;;;6.90;99.90;;;;;;5018666;28;20495;-42
2024/03/29 03:39:23;;;;;;;11.47;10.90;;;7.00;99.90;;;;;;5020475;28;20970;-41
2024/03/29 03:41:50;;;;;;;11.70;11.00;;;7.00;99.90;;;;;;5019447;28;20202;-38
2024/03/29 03:44:15;;;;;;;11.27;10.63;;;7.00;99.90;;;;;;5019738;28;20170;-38
2024/03/29 03:46:41;;;;;;;11.40;10.80;;;7.00;99.90;;;;;;5019486;28;20478;-43
2024/03/29 03:49:07;;;;;;;11.10;10.50;;;7.00;99.90;;;;;;5020167;28;20202;-41
2024/03/29 03:51:32;;;;;;;11.13;10.43;;;7.10;99.90;;;;;;5020788;28;20184;-41
2024/03/29 03:53:58;;;;;;;10.63;10.20;;;7.00;99.90;;;;;;5019154;28;20248;-39
2024/03/29 03:56:23;;;;;;;10.83;10.23;;;7.10;99.90;;;;;;5019934;28;20198;-44
2024/03/29 03:58:49;;;;;;;10.60;10.10;;;7.10;99.90;;;;;;5020317;28;20281;-40
2024/03/29 04:01:15;;;;;;;10.87;10.17;;;7.10;99.90;;;;;;5018629;28;20258;-42
2024/03/29 04:03:40;;;;;;;11.43;10.83;;;7.10;99.90;;;;;;5020393;28;20746;-40
2024/03/29 04:06:07;;;;;;;10.97;10.27;;;7.10;99.90;;;;;;5020293;28;20178;-41
2024/03/29 04:08:32;;;;;;;11.33;10.73;;;7.10;99.90;;;;;;5020112;28;20190;-44
2024/03/29 04:11:05;;;;;;;10.83;10.30;;;7.20;99.90;;;;;;5019214;28;20468;-42
2024/03/29 04:13:30;;;;;;;10.80;10.40;;;7.20;99.90;;;;;;5018735;28;20437;-40
2024/03/29 04:16:03;;;;;;;11.17;10.57;;;7.20;99.90;;;;;;5019951;28;20401;-42
2024/03/29 04:18:28;;;;;;;11.30;10.70;;;7.30;99.90;;;;;;5020105;28;20226;-42
2024/03/29 04:21:02;;;;;;;11.40;10.80;;;7.20;99.90;;;;;;5019753;28;20428;-46
2024/03/29 04:23:28;;;;;;;11.27;10.60;;;7.20;99.90;;;;;;5020199;28;20292;-42
2024/03/29 04:25:55;;;;;;;12.10;11.30;;;7.30;99.90;;;;;;5019802;28;20424;-44
2024/03/29 04:28:20;;;;;;;11.23;10.73;;;7.40;99.90;;;;;;5019814;28;20428;-41
2024/03/29 04:30:55;;;;;;;11.73;11.10;;;7.40;99.90;;;;;;5021347;28;20422;-45
2024/03/29 04:33:21;;;;;;;12.23;11.53;;;7.40;99.90;;;;;;5021183;28;20545;-40
2024/03/29 04:36:05;;;;;;;11.70;11.10;;;7.50;89.80;;;;;;5021064;28;20428;-42
2024/03/29 04:38:31;;;;;;;11.63;11.00;;;7.40;71.10;;;;;;5020244;28;20594;-39
2024/03/29 04:40:58;;;;;;;12.20;11.50;;;7.40;72.50;;;;;;5020642;28;20457;-42
2024/03/29 04:43:26;;;;;;;11.23;10.67;;;7.40;86.50;;;;;;5021351;28;20759;-39
2024/03/29 04:46:04;;;;;;;11.00;10.47;;;7.40;92.20;;;;;;5021305;28;20919;-46
2024/03/29 04:48:30;;;;;;;11.30;10.70;;;7.40;84.60;;;;;;5023095;28;20436;-39
2024/03/29 04:50:55;;;;;;;10.97;10.43;;;7.50;85.70;;;;;;5025271;28;20413;-39
2024/03/29 04:53:22;;;;;;;10.77;10.27;;;7.50;74.90;;;;;;5025196;28;20471;-40
2024/03/29 04:55:54;;;;;;;11.50;10.80;;;7.50;61.00;;;;;;5025047;28;20182;-40
2024/03/29 04:58:19;;;;;;;10.40;9.90;;;7.40;63.00;;;;;;5023417;28;20806;-39
2024/03/29 05:00:45;;;;;;;10.87;10.33;;;7.50;59.40;;;;;;5025156;28;20409;-46
2024/03/29 05:03:10;;;;;;;10.67;10.20;;;7.50;48.90;;;;;;5024816;28;20206;-40
2024/03/29 05:05:36;;;;;;;10.67;10.17;;;7.50;52.30;;;;;;5022289;28;20282;-39
2024/03/29 05:08:01;;;;;;;10.57;10.07;;;7.50;53.20;;;;;;5025124;28;20236;-41
2024/03/29 05:10:27;;;;;;;10.97;10.47;;;7.60;55.80;;;;;;5023296;28;20187;-43
2024/03/29 05:12:54;;;;;;;11.13;10.63;;;7.60;46.60;;;;;;5024979;28;20204;-42
2024/03/29 05:15:19;;;;;;;11.20;10.70;;;7.70;44.50;;;;;;5024553;28;20167;-42
2024/03/29 05:17:45;;;;;;;10.90;10.40;;;7.70;26.90;;;;;;5024263;28;20465;-52
2024/03/29 05:20:11;;;;;;;11.30;10.70;;;7.70;31.00;;;;;;5023276;28;20213;-46
2024/03/29 05:22:37;;;;;;;10.83;10.13;;;7.80;11.90;;;;;;5024514;28;20329;-47
2024/03/29 05:25:03;;;;;;;11.20;10.50;;;7.90;1.10;;;;;;5022717;28;20441;-46
2024/03/29 05:27:29;;;;;;;11.00;10.40;;;7.90;1.00;;;;;;5023270;28;20174;-53
2024/03/29 05:29:55;;;;;;;10.70;10.20;;;8.00;1.00;;;;;;5022282;28;20996;-53
2024/03/29 05:32:20;;;;;;;10.07;9.60;;;8.10;1.00;;;;;;5023161;28;20186;-47
2024/03/29 05:34:46;;;;;;;11.07;10.30;;;8.20;1.00;;;;;;5022526;28;21178;-48
2024/03/29 05:37:12;;;;;;;10.53;9.93;;;8.20;1.00;;;;;;5021881;28;20648;-47
2024/03/29 05:39:38;;;;;;;11.50;10.80;;;8.30;1.00;;;;;;5021716;28;20726;-49
2024/03/29 05:42:03;;;;;;;11.30;10.70;;;8.30;1.00;;;;;;5022968;28;20213;-50
2024/03/29 05:44:29;;;;;;;10.70;10.20;;;8.20;1.00;;;;;;5021004;28;20221;-49
2024/03/29 05:46:54;;;;;;;10.67;10.00;;;8.30;1.00;;;;;;5021135;28;20502;-51
2024/03/29 05:49:20;;;;;;;10.70;10.20;;;8.30;1.00;;;;;;5020598;28;20394;-48
2024/03/29 05:51:46;;;;;;;11.10;10.50;;;8.40;1.00;;;;;;5022333;28;20187;-48
2024/03/29 05:54:12;;;;;;;11.20;10.70;;;8.40;1.00;;;;;;5022256;28;20204;-50
2024/03/29 05:56:37;;;;;;;11.00;10.50;;;8.50;1.00;;;;;;5022457;28;20186;-49
2024/03/29 05:59:03;;;;;;;10.63;10.03;;;8.50;1.00;;;;;;5021110;28;20433;-51
2024/03/29 06:01:30;;;;;;;10.30;9.90;;;8.60;1.00;;;;;;5018403;28;20226;-47
2024/03/29 06:03:56;;;;;;;10.07;9.67;;;8.60;1.00;;;;;;5022347;28;20420;-49
2024/03/29 06:06:25;;;;;;;10.60;10.10;;;8.60;1.00;;;;;;5022461;28;20425;-48
2024/03/29 06:08:51;;;;;;;11.03;10.43;;;8.70;1.00;;;;;;5022409;28;20501;-51
2024/03/29 06:11:17;;;;;;;10.50;10.00;;;8.70;1.00;;;;;;5020908;28;20911;-44
2024/03/29 06:19:05;;;;;;;10.40;9.80;;;8.70;1.00;;;;;;5021107;28;20468;-51
2024/03/29 06:21:40;;;;;;;10.07;9.57;;;8.80;1.00;;;;;;5020909;28;20568;-46
2024/03/29 06:24:07;;;;;;;10.57;9.87;;;8.90;1.00;;;;;;5021977;28;20174;-49
2024/03/29 06:26:33;;;;;;;10.50;9.90;;;8.90;1.00;;;;;;5022563;28;20514;-49
2024/03/29 06:29:01;;;;;;;10.20;9.80;;;9.00;1.00;;;;;;5021038;28;20427;-51
2024/03/29 06:31:26;;;;;;;10.30;9.90;;;9.00;1.00;;;;;;5018584;28;20473;-53
2024/03/29 06:33:52;;;;;;;9.93;9.53;;;9.10;1.00;;;;;;5020724;28;20556;-50
2024/03/29 06:36:18;;;;;;;10.67;10.17;;;9.20;1.00;;;;;;5020647;28;20710;-46
2024/03/29 06:38:44;;;;;;;10.73;10.23;;;9.20;1.00;;;;;;5021667;28;20739;-49
2024/03/29 06:41:10;;;;;;;11.10;10.50;;;9.30;1.00;;;;;;5020722;28;20237;-49
2024/03/29 06:43:35;;;;;;;10.60;10.10;;;9.30;1.00;;;;;;5020548;28;20449;-53
2024/03/29 06:46:02;;;;;;;11.13;10.50;;;9.30;1.00;;;;;;5020386;28;20182;-41
2024/03/29 06:48:30;;;;;;;10.20;9.80;;;9.30;1.00;;;;;;5020965;28;20188;-43
2024/03/29 06:50:56;;;;;;;10.80;10.20;;;9.40;1.00;;;;;;5021351;28;20455;-44
2024/03/29 06:53:22;;;;;;;11.00;10.40;;;9.40;1.00;;;;;;5021233;28;20452;-44
2024/03/29 06:55:49;;;;;;;10.30;9.90;;;9.50;1.00;;;;;;5020810;28;20179;-42
2024/03/29 06:58:15;;;;;;;10.87;10.27;;;9.50;1.00;;;;;;5021133;28;20186;-39
2024/03/29 07:00:40;;;;;;;10.73;10.23;;;9.50;1.00;;;;;;5020304;28;20429;-42
2024/03/29 07:03:06;;;;;;;10.40;9.80;;;9.60;1.00;;;;;;5020101;28;20233;-39
2024/03/29 07:05:32;;;;;;;10.73;10.23;;;9.60;1.00;;;;;;5020688;28;20645;-41
2024/03/29 07:07:59;;;;;;;10.47;9.97;;;9.70;1.00;;;;;;5019904;28;20532;-43
2024/03/29 07:10:25;;;;;;;10.03;9.63;;;9.70;1.00;;;;;;5020719;28;20671;-42
2024/03/29 07:12:51;;;;;;;10.60;10.10;;;9.80;1.00;;;;;;5019531;28;20464;-39
2024/03/29 07:15:17;;;;;;;10.70;10.20;;;9.80;1.00;;;;;;5020044;28;21265;-39
2024/03/29 07:17:43;;;;;;;10.70;10.20;;;9.90;1.00;;;;;;5019832;28;20237;-44
2024/03/29 07:20:09;;;;;;;9.60;9.20;;;10.00;1.00;;;;;;5019169;28;20675;-47
2024/03/29 07:22:35;;;;;;;9.93;9.53;;;10.00;1.00;;;;;;5019441;28;20966;-51
2024/03/29 07:25:01;;;;;;;10.63;10.13;;;10.10;1.00;;;;;;5019139;28;20448;-46
2024/03/29 07:27:29;;;;;;;10.53;10.03;;;10.10;1.00;;;;;;5018687;28;21157;-51
2024/03/29 07:29:55;;;;;;;10.23;9.83;;;10.10;1.00;;;;;;5019166;28;20584;-46
2024/03/29 07:32:20;;;;;;;10.80;10.30;;;10.10;1.00;;;;;;5020744;28;20464;-44
2024/03/29 07:34:46;;;;;;;10.10;9.70;;;10.20;1.00;;;;;;5018974;28;20197;-49
2024/03/29 07:37:14;;;;;;;9.73;9.33;;;10.30;1.00;;;;;;5020500;28;20259;-50
2024/03/29 07:39:41;;;;;;;10.00;9.60;;;10.30;1.00;;;;;;5020386;28;20592;-43
2024/03/29 07:42:08;;;;;;;10.67;10.17;;;10.30;1.00;;;;;;5020318;28;20476;-47
2024/03/29 07:44:34;;;;;;;10.70;10.20;;;10.30;1.00;;;;;;5018971;28;20969;-47
2024/03/29 07:46:59;;;;;;;10.50;10.10;;;10.40;1.00;;;;;;5020249;28;20409;-50
2024/03/29 07:49:25;;;;;;;9.80;9.40;;;10.40;1.00;;;;;;5016002;28;20731;-40
2024/03/29 07:51:50;;;;;;;10.10;9.70;;;10.50;1.00;;;;;;5019352;28;20202;-42
2024/03/29 07:54:16;;;;;;;10.83;10.33;;;10.50;1.00;;;;;;5020446;28;20190;-43
2024/03/29 07:56:41;;;;;;;9.07;8.67;;;10.50;1.00;;;;;;5018563;28;20643;-45
2024/03/29 07:59:07;;;;;;;9.80;9.40;;;10.60;1.00;;;;;;5017793;28;20195;-38
2024/03/29 08:01:33;;;;;;;10.33;9.83;;;10.60;1.00;;;;;;5016332;28;20206;-42
2024/03/29 08:03:58;;;;;;;10.40;10.00;;;10.80;1.00;;;;;;5018137;28;20191;-38
2024/03/29 08:06:24;;;;;;;10.40;9.90;;;10.90;1.00;;;;;;5017051;28;20257;-40
2024/03/29 08:08:53;;;;;;;10.20;9.80;;;11.00;99.90;;;;;;5016533;28;20187;-51
2024/03/29 08:11:18;;;;;;;10.17;9.70;;;11.10;99.90;;;;;;5017836;28;20190;-50
2024/03/29 08:13:44;;;;;;;10.20;9.70;;;11.20;99.90;;;;;;5018962;28;20433;-45
2024/03/29 08:16:10;;;;;;;9.90;9.50;;;11.30;99.90;;;;;;5017129;28;20186;-45
2024/03/29 08:18:36;;;;;;;10.13;9.63;;;11.40;99.90;;;;;;5019301;28;20340;-52
2024/03/29 08:21:02;;;;;;;10.20;9.80;;;11.50;99.90;;;;;;5019180;28;21061;-47
2024/03/29 08:23:28;;;;;;;10.50;10.00;;;11.50;99.90;;;;;;5023512;28;20186;-49
2024/03/29 08:25:55;;;;;;;9.90;9.40;;;11.60;99.90;;;;;;5011449;28;20471;-49
2024/03/29 08:28:22;;;;;;;10.37;9.80;;;11.70;99.90;;;;;;5023901;28;20425;-45
2024/03/29 08:30:58;;;;;;;10.13;9.53;;;11.80;99.90;;;;;;5023712;28;20443;-48
2024/03/29 08:33:24;;;;;;;10.93;10.43;;;11.70;99.90;;;;;;5023569;28;21252;-50
2024/03/29 08:35:50;;;;;;;10.50;10.10;;;11.70;99.90;;;;;;5023200;28;20479;-49
2024/03/29 08:38:15;;;;;;;10.70;10.20;;;11.90;99.90;;;;;;5023637;28;20193;-48
2024/03/29 08:40:43;;;;;;;10.10;9.60;;;12.00;99.90;;;;;;5023782;28;20183;-50
2024/03/29 08:43:09;;;;;;;10.87;10.37;;;11.90;99.90;;;;;;5023931;28;20214;-49
2024/03/29 08:45:40;;;;;;;11.30;10.40;;;11.90;99.90;;;;;;5023363;28;21152;-48
2024/03/29 08:48:08;;;;;;;10.40;10.00;;;12.00;99.90;;;;;;5021318;28;20214;-46
2024/03/29 08:50:35;;;;;;;10.57;10.00;;;12.10;99.90;;;;;;5022244;28;20938;-51
2024/03/29 08:53:03;;;;;;;9.80;9.30;;;12.10;99.90;;;;;;5022262;28;20921;-51
2024/03/29 08:55:32;;;;;;;10.27;9.83;;;12.30;99.90;;;;;;5020762;28;20788;-48
2024/03/29 08:57:58;;;;;;;9.90;9.50;;;12.50;99.90;;;;;;5022672;28;20441;-47
2024/03/29 09:00:25;;;;;;;9.03;8.63;;;12.60;99.90;;;;;;5021474;28;20432;-52
2024/03/29 09:02:50;;;;;;;8.80;8.43;;;12.80;99.90;;;;;;5022422;28;20476;-50
2024/03/29 09:05:16;;;;;;;10.50;10.00;;;13.10;99.90;;;;;;5019153;28;20484;-48
2024/03/29 09:07:42;;;;;;;10.37;9.77;;;13.30;99.90;;;;;;5021146;28;20222;-48
2024/03/29 09:10:08;;;;;;;9.83;9.43;;;13.40;99.90;;;;;;5022930;28;20194;-48
2024/03/29 09:12:33;;;;;;;10.17;9.70;;;13.70;99.90;;;;;;5023201;28;20712;-50
2024/03/29 09:14:59;;;;;;;10.33;9.83;;;13.90;99.90;;;;;;5019864;28;20976;-50
2024/03/29 09:17:25;;;;;;;9.90;9.40;;;14.10;99.90;;;;;;5020484;28;20283;-52
2024/03/29 09:19:54;;;;;;;9.83;9.33;;;14.40;99.90;;;;;;5018744;28;20636;-52
2024/03/29 09:22:20;;;;;;;9.87;9.47;;;14.60;99.90;;;;;;5019737;28;20554;-49
2024/03/29 09:24:45;;;;;;;9.17;8.77;;;14.90;99.90;;;;;;5020838;28;20531;-43
2024/03/29 09:27:11;;;;;;;9.70;9.20;;;15.10;99.90;;;;;;5020460;28;20194;-53
2024/03/29 09:29:36;;;;;;;9.00;8.60;;;15.30;99.90;;;;;;5021694;28;20206;-49
2024/03/29 09:32:02;;;;;;;9.57;9.10;;;15.10;99.90;;;;;;5019499;28;20604;-42
2024/03/29 09:34:28;;;;;;;9.50;9.00;;;15.20;99.90;;;;;;5021040;28;20186;-45
2024/03/29 09:36:54;;;;;;;9.50;9.10;;;15.50;99.90;;;;;;5021364;28;20197;-43
2024/03/29 09:39:19;;;;;;;9.40;8.90;;;15.50;99.90;;;;;;5022319;28;20491;-43
2024/03/29 09:41:46;;;;;;;9.50;9.10;;;15.40;99.90;;;;;;5021737;28;20222;-40
2024/03/29 09:44:11;;;;;;;9.53;9.13;;;15.60;99.90;;;;;;5021498;28;20995;-45
2024/03/29 09:46:40;;;;;;;9.27;8.87;;;15.60;99.90;;;;;;5020825;28;20498;-40
2024/03/29 09:49:06;;;;;;;9.97;9.57;;;15.50;99.90;;;;;;5020110;28;20174;-42
2024/03/29 09:51:33;;;;;;;9.50;9.00;;;15.60;99.90;;;;;;5019616;28;20444;-42
2024/03/29 09:54:00;;;;;;;10.10;9.70;;;15.30;99.90;;;;;;5018234;28;20556;-42
2024/03/29 09:56:26;;;;;;;9.13;8.53;;;15.30;99.90;;;;;;5021504;28;20428;-43
2024/03/29 09:58:53;;;;;;;9.63;9.13;;;15.30;99.90;;;;;;5021699;28;20520;-42
2024/03/29 10:01:19;;;;;;;9.40;9.00;;;15.40;99.90;;;;;;5021175;28;20473;-49
2024/03/29 10:03:52;;;;;;;9.57;9.17;;;15.40;99.90;;;;;;5022056;28;20448;-47
2024/03/29 10:06:19;;;;;;;9.27;8.97;;;15.30;99.90;;;;;;5014490;28;20822;-52
2024/03/29 10:08:45;;;;;;;9.60;9.20;;;15.30;99.90;;;;;;5019190;28;20436;-49
2024/03/29 10:11:11;;;;;;;10.20;9.70;;;15.30;99.90;;;;;;5019871;28;20416;-49
2024/03/29 10:13:37;;;;;;;10.50;9.90;;;15.30;99.90;;;;;;5021805;28;20210;-49
2024/03/29 10:16:03;;;;;;;10.30;9.80;;;15.20;99.90;;;;;;5021534;28;20427;-45
2024/03/29 10:18:32;;;;;;;10.07;9.43;;;15.40;99.90;;;;;;5020295;28;20473;-48
2024/03/29 10:21:01;;;;;;;10.30;9.90;;;15.50;99.90;;;;;;5021144;28;20430;-53
2024/03/29 10:23:28;;;;;;;10.50;10.00;;;15.30;99.90;;;;;;5020111;28;20432;-49
2024/03/29 10:25:53;;;;;;;10.30;9.70;;;15.30;99.90;;;;;;5020399;28;20445;-49
2024/03/29 10:28:19;;;;;;;9.77;9.37;;;15.40;99.90;;;;;;5018516;28;20455;-51
2024/03/29 10:30:45;;;;;;;10.07;9.67;;;15.40;99.90;;;;;;5019618;28;20190;-51
2024/03/29 10:33:12;;;;;;;10.37;9.87;;;15.60;99.90;;;;;;5018201;28;20444;-50
2024/03/29 10:35:41;;;;;;;10.90;10.40;;;15.90;99.90;;;;;;5019275;28;20811;-51
2024/03/29 10:38:06;;;;;;;11.17;10.40;;;16.20;99.90;;;;;;5019304;28;20444;-49
2024/03/29 10:40:32;;;;;;;8.83;8.43;;;16.50;99.90;;;;;;5019158;28;20441;-50
2024/03/29 10:42:59;;;;;;;9.47;9.07;;;16.80;99.90;;;;;;5018673;28;20594;-47
2024/03/29 10:45:26;;;;;;;10.17;9.57;;;17.10;99.90;;;;;;5018500;28;20429;-49
2024/03/29 10:47:53;;;;;;;10.10;9.60;;;17.30;99.90;;;;;;5020081;28;20428;-49
2024/03/29 10:50:21;;;;;;;10.33;9.87;;;17.40;99.90;;;;;;5019582;28;20632;-49
2024/03/29 10:52:48;;;;;;;10.27;9.77;;;17.50;99.90;;;;;;5019765;28;20482;-46
2024/03/29 10:55:14;;;;;;;10.90;10.40;;;17.80;99.90;;;;;;5020884;28;20440;-48
2024/03/29 10:57:42;;;;;;;10.23;9.83;;;18.00;99.90;;;;;;5020729;28;20494;-49
2024/03/29 11:00:18;;;;;;;10.83;10.33;;;18.10;99.90;;;;;;5020774;28;20180;-49
2024/03/29 11:03:03;;;;;;;11.03;10.47;;;18.30;99.90;;;;;;5020591;28;20532;-52
2024/03/29 11:05:30;;;;;;;10.47;9.97;;;18.30;99.90;;;;;;5019854;28;20436;-46
2024/03/29 11:07:57;;;;;;;11.10;10.50;;;18.30;99.90;;;;;;5020112;28;20412;-49
2024/03/29 11:10:30;;;;;;;10.77;10.37;;;18.10;99.90;;;;;;5020086;28;20482;-47
2024/03/29 11:13:03;;;;;;;10.33;9.93;;;18.00;99.90;;;;;;5015042;28;20431;-50
2024/03/29 11:15:30;;;;;;;11.70;11.03;;;17.80;99.90;;;;;;5019951;28;20432;-46
2024/03/29 11:17:57;;;;;;;11.40;10.90;;;17.60;99.90;;;;;;5020694;28;20479;-44
2024/03/29 11:20:39;;;;;;;11.00;10.50;;;17.50;99.90;;;;;;5020521;28;20424;-51
2024/03/29 11:23:16;;;;;;;10.83;10.33;;;17.20;99.90;;;;;;5018902;28;21340;-46
2024/03/29 11:25:45;;;;;;;10.90;10.40;;;17.10;99.90;;;;;;5020501;28;20470;-47
2024/03/29 11:28:13;;;;;;;10.57;10.07;;;17.10;99.90;;;;;;5018733;28;20472;-49
2024/03/29 11:30:45;;;;;;;11.00;10.50;;;16.80;99.90;;;;;;5016702;28;20438;-47
2024/03/29 11:33:31;;;;;;;10.30;9.80;;;16.70;99.90;;;;;;5019758;28;20437;-51
2024/03/29 11:35:58;;;;;;;10.43;10.00;;;16.70;99.90;;;;;;5019100;28;20490;-52
2024/03/29 11:38:35;;;;;;;10.20;9.80;;;16.70;99.90;;;;;;5019674;28;20433;-50
2024/03/29 11:41:11;;;;;;;9.97;9.57;;;16.70;99.90;;;;;;5017833;28;20469;-52
2024/03/29 11:43:37;;;;;;;10.10;9.70;;;16.60;99.90;;;;;;5019119;28;20531;-50
2024/03/29 11:46:06;;;;;;;10.40;9.90;;;16.60;99.90;;;;;;5015184;28;20429;-48
2024/03/29 11:48:31;;;;;;;10.50;10.00;;;16.70;99.90;;;;;;5019142;28;20475;-52
2024/03/29 11:50:58;;;;;;;10.90;10.40;;;16.70;99.90;;;;;;5019883;28;20417;-51
2024/03/29 11:53:24;;;;;;;11.33;10.83;;;16.70;99.90;;;;;;5019173;28;20185;-40
2024/03/29 11:55:53;;;;;;;10.97;10.33;;;16.60;99.90;;;;;;5019371;28;20417;-40
2024/03/29 11:58:22;;;;;;;10.50;10.10;;;16.60;99.90;;;;;;5016699;28;20178;-39
2024/03/29 12:00:48;;;;;;;10.40;9.80;;;16.70;99.90;;;;;;5019727;28;20460;-38
2024/03/29 12:03:18;;;;;;;11.10;10.50;;;16.80;99.90;;;;;;5020226;28;20472;-38
2024/03/29 12:05:44;;;;;;;10.60;10.10;;;16.90;99.90;;;;;;5019522;28;20980;-39
2024/03/29 12:08:11;;;;;;;10.83;10.33;;;16.90;99.90;;;;;;5019214;28;20544;-39
2024/03/29 12:10:37;;;;;;;9.50;9.13;;;16.90;99.90;;;;;;5020583;28;20420;-39
2024/03/29 12:13:04;;;;;;;10.70;10.20;;;17.00;99.90;;;;;;5020256;28;20429;-42
2024/03/29 12:15:30;;;;;;;10.33;9.90;;;17.00;99.90;;;;;;5019082;28;20433;-42
2024/03/29 12:18:05;;;;;;;11.10;10.50;;;17.10;99.90;;;;;;5019994;28;20456;-40
2024/03/29 12:20:37;;;;;;;10.90;10.30;;;17.10;99.90;;;;;;5019607;28;20272;-39
2024/03/29 12:23:04;;;;;;;10.57;10.17;;;17.00;99.90;;;;;;5017638;28;20461;-47
2024/03/29 12:25:31;;;;;;;10.30;9.80;;;17.20;99.90;;;;;;5019559;28;20409;-37
2024/03/29 12:27:58;;;;;;;9.40;9.00;;;17.10;99.90;;;;;;5019637;28;20507;-37
2024/03/29 12:30:24;;;;;;;10.70;10.20;;;17.20;99.90;;;;;;5019707;28;20417;-50
2024/03/29 12:33:06;;;;;;;10.40;9.90;;;17.30;99.90;;;;;;5019584;28;20413;-52
2024/03/29 12:35:32;;;;;;;9.83;9.43;;;17.40;99.90;;;;;;5019084;28;20857;-52
2024/03/29 12:37:59;;;;;;;10.23;9.83;;;17.40;99.90;;;;;;5019756;28;20449;-49
2024/03/29 12:40:28;;;;;;;11.13;10.60;;;17.50;99.90;;;;;;5018814;28;20958;-49
2024/03/29 12:42:54;;;;;;;10.83;10.33;;;17.60;99.90;;;;;;5019255;28;20464;-46
2024/03/29 12:45:20;;;;;;;10.40;10.00;;;17.80;99.90;;;;;;5019080;28;20417;-47
2024/03/29 12:47:47;;;;;;;10.00;9.60;;;17.90;99.90;;;;;;5019364;28;20179;-47
2024/03/29 12:50:29;;;;;;;10.57;10.07;;;18.00;99.90;;;;;;5019213;28;20424;-47